Gaz Palmyra — 3FCO4 — position and weather

sailwx.info

Track history (hours):
 
Tides and Currents Weather Stations Pressure Air Temp Water Temp Dewpoint Dewpoint Depression Visibility Wind Speed Wind Dir Waves Ship Positions

Gaz Palmyra

Last reported at 2017-Jun-23 04:42 UTC. Time now 2017-Jun-23 10:31 UTC.
Position N 35°49' W 000°15'.

; draft 6.4 m.

Type: Ship (hazmat cat C). MMSI: 353247000.

Date/timePositionNaut miles runAvg speedWind from/ knotsBaromVisibWave heightAir tempDewpointWater temp
2017-Jun-23 04:42N 35°49' W 000°15'0 0.1
2017-Jun-23 04:30N 35°49' W 000°15'1 1.9
2017-Jun-23 04:00N 35°49' W 000°14'2 4.1
2017-Jun-23 03:30N 35°51' W 000°13'3 6.8
2017-Jun-23 03:01N 35°54' W 000°11'510.8
2017-Jun-23 02:30N 35°57' W 000°06'510.7
2017-Jun-23 02:00N 36°01' W 000°01'610.4
2017-Jun-23 01:27N 36°06' E 000°03'510.3
2017-Jun-23 01:01N 36°09' E 000°07'510.7
2017-Jun-23 00:30N 36°13' E 000°12'510.7
2017-Jun-23 00:00N 36°17' E 000°16'510.5
2017-Jun-22 23:30N 36°21' E 000°20'510.6
2017-Jun-22 23:01N 36°25' E 000°24'510.7
2017-Jun-22 22:30N 36°29' E 000°29'510.7
2017-Jun-22 22:01N 36°32' E 000°34'611.1
2017-Jun-22 21:30N 36°35' E 000°40'611.2
2017-Jun-22 21:00N 36°39' E 000°46'611.2
2017-Jun-22 20:30N 36°41' E 000°52'611.0
2017-Jun-22 20:00N 36°44' E 000°58'510.6
2017-Jun-22 19:30N 36°46' E 001°04'510.6
2017-Jun-22 19:00N 36°46' E 001°11'510.8
2017-Jun-22 18:30N 36°47' E 001°17'511.0
2017-Jun-22 18:00N 36°48' E 001°24'611.1
2017-Jun-22 17:30N 36°49' E 001°31'611.3
2017-Jun-22 17:00N 36°49' E 001°38'611.2
2017-Jun-22 16:30N 36°50' E 001°45'611.1
2017-Jun-22 16:00N 36°51' E 001°52'611.1
2017-Jun-22 15:30N 36°51' E 001°59'511.0
2017-Jun-22 15:00N 36°52' E 002°06'611.0
2017-Jun-22 14:30N 36°53' E 002°12'1110.9
2017-Jun-22 13:30N 36°54' E 002°26'511.1
2017-Jun-22 13:00N 36°55' E 002°33'611.2
2017-Jun-22 12:30N 36°56' E 002°40'611.3
2017-Jun-22 12:00N 36°57' E 002°47'511.2
2017-Jun-22 11:30N 36°57' E 002°54'510.9
2017-Jun-22 11:00N 36°53' E 002°59'611.2
2017-Jun-22 10:30N 36°50' E 003°05'5 9.2
2017-Jun-22 10:00N 36°46' E 003°05'1 0.1
2017-Jun-22 04:43N 36°46' E 003°05'  
2017-Jun-15 22:40N 36°46' E 003°06'0 0.0
2017-Jun-15 22:28N 36°46' E 003°06'0 0.0
2017-Jun-15 21:52N 36°46' E 003°06'0 0.0
2017-Jun-15 19:13N 36°46' E 003°06'0 0.0
2017-Jun-15 18:58N 36°46' E 003°06'0 0.0
2017-Jun-15 18:28N 36°46' E 003°06'0 0.0
2017-Jun-15 17:58N 36°46' E 003°06'0 0.0
2017-Jun-15 17:28N 36°46' E 003°06'0 0.0
2017-Jun-15 16:58N 36°46' E 003°06'0 0.0
2017-Jun-15 16:25N 36°46' E 003°06'0 0.0
2017-Jun-15 15:46N 36°46' E 003°06'0 0.0
2017-Jun-15 15:28N 36°46' E 003°06'0 0.0
2017-Jun-15 14:58N 36°46' E 003°06'0 0.0
2017-Jun-15 13:58N 36°46' E 003°06'0 0.0
2017-Jun-15 13:28N 36°46' E 003°06'0 0.0
2017-Jun-15 12:58N 36°46' E 003°06'0 0.0
2017-Jun-15 12:28N 36°46' E 003°06'0 0.0
2017-Jun-15 11:58N 36°46' E 003°06'0 0.0
2017-Jun-15 11:28N 36°46' E 003°06'0 0.0
2017-Jun-15 10:58N 36°46' E 003°06'0 0.0
2017-Jun-15 08:43N 36°46' E 003°06'0 0.1
2017-Jun-15 08:28N 36°46' E 003°06'0 0.2
2017-Jun-15 08:00N 36°46' E 003°06'0 0.9
2017-Jun-15 07:30N 36°46' E 003°06'2 3.5
2017-Jun-15 07:00N 36°48' E 003°06'4 7.7
2017-Jun-15 06:30N 36°51' E 003°04'611.9
2017-Jun-15 06:00N 36°54' E 002°58'611.6
2017-Jun-15 05:30N 36°57' E 002°51'712.1
2017-Jun-15 04:57N 36°56' E 002°43'512.1
2017-Jun-15 04:30N 36°55' E 002°36'612.0
2017-Jun-15 04:00N 36°54' E 002°29'611.9
2017-Jun-15 03:30N 36°54' E 002°21'611.7
2017-Jun-15 03:00N 36°53' E 002°14'611.4
2017-Jun-15 02:30N 36°52' E 002°07'611.2
2017-Jun-15 02:00N 36°51' E 002°00'611.2
2017-Jun-15 01:30N 36°51' E 001°53'611.2
2017-Jun-15 01:00N 36°50' E 001°46'611.2
2017-Jun-15 00:30N 36°49' E 001°39'611.0
2017-Jun-15 00:00N 36°48' E 001°33'611.3
2017-Jun-14 23:30N 36°47' E 001°26'611.6
2017-Jun-14 23:00N 36°46' E 001°19'611.5
2017-Jun-14 22:30N 36°45' E 001°11'611.5
2017-Jun-14 22:00N 36°44' E 001°04'711.6
2017-Jun-14 21:24N 36°43' E 000°56'1011.6
2017-Jun-14 20:31N 36°38' E 000°45'211.2
2017-Jun-14 20:20N 36°36' E 000°43'411.2
2017-Jun-14 19:58N 36°34' E 000°38'511.1
2017-Jun-14 19:30N 36°32' E 000°33'610.9
2017-Jun-14 19:00N 36°28' E 000°28'510.9
2017-Jun-14 18:30N 36°24' E 000°23'610.9
2017-Jun-14 17:59N 36°20' E 000°18'1511.1
2017-Jun-14 16:38N 36°09' E 000°06'1211.4
2017-Jun-14 15:36N 35°60' W 000°04'111.3
2017-Jun-14 15:28N 35°59' W 000°05'5 0.2
2017-Jun-13 09:20N 35°59' W 000°11'0 0.4
2017-Jun-13 08:52N 35°59' W 000°12'0 0.4
2017-Jun-13 08:02N 35°60' W 000°12'0 0.4
2017-Jun-13 08:00N 35°60' W 000°12'0 0.3
2017-Jun-13 06:40N 35°60' W 000°12'0 0.2
2017-Jun-13 06:30N 35°60' W 000°12'0 0.2
2017-Jun-13 05:45N 36°00' W 000°12'  
Track history (hours):
 
Tides and Currents Weather Stations Pressure Air Temp Water Temp Dewpoint Dewpoint Depression Visibility Wind Speed Wind Dir Waves Ship Positions

Gaz Palmyra

Last reported at 2017-Jun-23 04:42 UTC. Time now 2017-Jun-23 10:31 UTC.
Position N 35°49' W 000°15'.

; draft 6.4 m.

Type: Ship (hazmat cat C). MMSI: 353247000.

Date/timePositionNaut miles runAvg speedWind from/ knotsBaromVisibWave heightAir tempDewpointWater temp
2017-Jun-23 04:42N 35°49' W 000°15'0 0.1
2017-Jun-23 04:30N 35°49' W 000°15'1 1.9
2017-Jun-23 04:00N 35°49' W 000°14'2 4.1
2017-Jun-23 03:30N 35°51' W 000°13'3 6.8
2017-Jun-23 03:01N 35°54' W 000°11'510.8
2017-Jun-23 02:30N 35°57' W 000°06'510.7
2017-Jun-23 02:00N 36°01' W 000°01'610.4
2017-Jun-23 01:27N 36°06' E 000°03'510.3
2017-Jun-23 01:01N 36°09' E 000°07'510.7
2017-Jun-23 00:30N 36°13' E 000°12'510.7
2017-Jun-23 00:00N 36°17' E 000°16'510.5
2017-Jun-22 23:30N 36°21' E 000°20'510.6
2017-Jun-22 23:01N 36°25' E 000°24'510.7
2017-Jun-22 22:30N 36°29' E 000°29'510.7
2017-Jun-22 22:01N 36°32' E 000°34'611.1
2017-Jun-22 21:30N 36°35' E 000°40'611.2
2017-Jun-22 21:00N 36°39' E 000°46'611.2
2017-Jun-22 20:30N 36°41' E 000°52'611.0
2017-Jun-22 20:00N 36°44' E 000°58'510.6
2017-Jun-22 19:30N 36°46' E 001°04'510.6
2017-Jun-22 19:00N 36°46' E 001°11'510.8
2017-Jun-22 18:30N 36°47' E 001°17'511.0
2017-Jun-22 18:00N 36°48' E 001°24'611.1
2017-Jun-22 17:30N 36°49' E 001°31'611.3
2017-Jun-22 17:00N 36°49' E 001°38'611.2
2017-Jun-22 16:30N 36°50' E 001°45'611.1
2017-Jun-22 16:00N 36°51' E 001°52'611.1
2017-Jun-22 15:30N 36°51' E 001°59'511.0
2017-Jun-22 15:00N 36°52' E 002°06'611.0
2017-Jun-22 14:30N 36°53' E 002°12'1110.9
2017-Jun-22 13:30N 36°54' E 002°26'511.1
2017-Jun-22 13:00N 36°55' E 002°33'611.2
2017-Jun-22 12:30N 36°56' E 002°40'611.3
2017-Jun-22 12:00N 36°57' E 002°47'511.2
2017-Jun-22 11:30N 36°57' E 002°54'510.9
2017-Jun-22 11:00N 36°53' E 002°59'611.2
2017-Jun-22 10:30N 36°50' E 003°05'5 9.2
2017-Jun-22 10:00N 36°46' E 003°05'1 0.1
2017-Jun-22 04:43N 36°46' E 003°05'  
2017-Jun-15 22:40N 36°46' E 003°06'0 0.0
2017-Jun-15 22:28N 36°46' E 003°06'0 0.0
2017-Jun-15 21:52N 36°46' E 003°06'0 0.0
2017-Jun-15 19:13N 36°46' E 003°06'0 0.0
2017-Jun-15 18:58N 36°46' E 003°06'0 0.0
2017-Jun-15 18:28N 36°46' E 003°06'0 0.0
2017-Jun-15 17:58N 36°46' E 003°06'0 0.0
2017-Jun-15 17:28N 36°46' E 003°06'0 0.0
2017-Jun-15 16:58N 36°46' E 003°06'0 0.0
2017-Jun-15 16:25N 36°46' E 003°06'0 0.0
2017-Jun-15 15:46N 36°46' E 003°06'0 0.0
2017-Jun-15 15:28N 36°46' E 003°06'0 0.0
2017-Jun-15 14:58N 36°46' E 003°06'0 0.0
2017-Jun-15 13:58N 36°46' E 003°06'0 0.0
2017-Jun-15 13:28N 36°46' E 003°06'0 0.0
2017-Jun-15 12:58N 36°46' E 003°06'0 0.0
2017-Jun-15 12:28N 36°46' E 003°06'0 0.0
2017-Jun-15 11:58N 36°46' E 003°06'0 0.0
2017-Jun-15 11:28N 36°46' E 003°06'0 0.0
2017-Jun-15 10:58N 36°46' E 003°06'0 0.0
2017-Jun-15 08:43N 36°46' E 003°06'0 0.1
2017-Jun-15 08:28N 36°46' E 003°06'0 0.2
2017-Jun-15 08:00N 36°46' E 003°06'0 0.9
2017-Jun-15 07:30N 36°46' E 003°06'2 3.5
2017-Jun-15 07:00N 36°48' E 003°06'4 7.7
2017-Jun-15 06:30N 36°51' E 003°04'611.9
2017-Jun-15 06:00N 36°54' E 002°58'611.6
2017-Jun-15 05:30N 36°57' E 002°51'712.1
2017-Jun-15 04:57N 36°56' E 002°43'512.1
2017-Jun-15 04:30N 36°55' E 002°36'612.0
2017-Jun-15 04:00N 36°54' E 002°29'611.9
2017-Jun-15 03:30N 36°54' E 002°21'611.7
2017-Jun-15 03:00N 36°53' E 002°14'611.4
2017-Jun-15 02:30N 36°52' E 002°07'611.2
2017-Jun-15 02:00N 36°51' E 002°00'611.2
2017-Jun-15 01:30N 36°51' E 001°53'611.2
2017-Jun-15 01:00N 36°50' E 001°46'611.2
2017-Jun-15 00:30N 36°49' E 001°39'611.0
2017-Jun-15 00:00N 36°48' E 001°33'611.3
2017-Jun-14 23:30N 36°47' E 001°26'611.6
2017-Jun-14 23:00N 36°46' E 001°19'611.5
2017-Jun-14 22:30N 36°45' E 001°11'611.5
2017-Jun-14 22:00N 36°44' E 001°04'711.6
2017-Jun-14 21:24N 36°43' E 000°56'1011.6
2017-Jun-14 20:31N 36°38' E 000°45'211.2
2017-Jun-14 20:20N 36°36' E 000°43'411.2
2017-Jun-14 19:58N 36°34' E 000°38'511.1
2017-Jun-14 19:30N 36°32' E 000°33'610.9
2017-Jun-14 19:00N 36°28' E 000°28'510.9
2017-Jun-14 18:30N 36°24' E 000°23'610.9
2017-Jun-14 17:59N 36°20' E 000°18'1511.1
2017-Jun-14 16:38N 36°09' E 000°06'1211.4
2017-Jun-14 15:36N 35°60' W 000°04'111.3
2017-Jun-14 15:28N 35°59' W 000°05'5 0.2
2017-Jun-13 09:20N 35°59' W 000°11'0 0.4
2017-Jun-13 08:52N 35°59' W 000°12'0 0.4
2017-Jun-13 08:02N 35°60' W 000°12'0 0.4
2017-Jun-13 08:00N 35°60' W 000°12'0 0.3
2017-Jun-13 06:40N 35°60' W 000°12'0 0.2
2017-Jun-13 06:30N 35°60' W 000°12'0 0.2
2017-Jun-13 05:45N 36°00' W 000°12'  

Dump ship's entire track history